Time;durP1;ratioP1;P1;durP2;ratioP2;P2;SDS_P1;SDS_P2;PMS_P1;PMS_P2;Temp;Humidity;BMP_temperature;BMP_pressure;BME280_temperature;BME280_humidity;BME280_pressure;Samples;Min_cycle;Max_cycle;Signal;HPM_P1;HPM_P2
2023/07/17 00:03:44;;;;;;;8.00;3.93;;;20.40;77.20;;;;;;20912915;28;20694;-68
2023/07/17 00:13:46;;;;;;;6.17;3.37;;;20.30;78.80;;;;;;20912572;28;20204;-67
2023/07/17 00:23:48;;;;;;;9.23;3.87;;;20.20;80.80;;;;;;20912226;28;20575;-66
2023/07/17 00:33:50;;;;;;;8.43;3.60;;;20.30;82.50;;;;;;20911605;28;20293;-63
2023/07/17 00:43:51;;;;;;;7.97;3.70;;;20.10;83.90;;;;;;20911121;28;20324;-63
2023/07/17 00:53:54;;;;;;;6.40;3.47;;;19.90;85.00;;;;;;20910999;28;20270;-62
2023/07/17 01:04:00;;;;;;;26.23;3.93;;;19.80;85.90;;;;;;20915533;28;20243;-62
2023/07/17 01:14:02;;;;;;;6.20;3.53;;;19.70;87.10;;;;;;20925768;28;20235;-62
2023/07/17 01:24:04;;;;;;;9.17;3.70;;;;;;;;;;20925243;28;20235;-62
2023/07/17 01:34:06;;;;;;;7.07;3.80;;;19.50;88.80;;;;;;20924263;28;20210;-62
2023/07/17 01:44:08;;;;;;;7.00;3.80;;;;;;;;;;20923238;28;20242;-62
2023/07/17 01:54:10;;;;;;;6.17;3.33;;;19.30;90.50;;;;;;20922936;28;20238;-62
2023/07/17 02:04:11;;;;;;;7.80;3.90;;;19.10;90.90;;;;;;20921968;28;20594;-62
2023/07/17 02:14:14;;;;;;;7.00;3.50;;;19.00;91.20;;;;;;20921112;28;20205;-64
2023/07/17 02:24:15;;;;;;;10.00;4.30;;;18.90;91.40;;;;;;20965353;28;20323;-65
2023/07/17 02:34:17;;;;;;;7.33;3.93;;;18.80;91.40;;;;;;20975315;28;20213;-65
2023/07/17 02:44:19;;;;;;;10.90;3.63;;;;;;;;;;20989692;28;20336;-61
2023/07/17 02:54:22;;;;;;;7.03;3.77;;;18.80;92.40;;;;;;20980187;28;20258;-61
2023/07/17 03:04:27;;;;;;;5.67;3.40;;;17.80;92.50;;;;;;20946188;28;20856;-63
2023/07/17 03:14:28;;;;;;;7.67;3.60;;;18.60;93.40;;;;;;20916892;28;20711;-62
2023/07/17 03:24:31;;;;;;;7.33;3.90;;;;;;;;;;20915788;28;20229;-62
2023/07/17 03:34:33;;;;;;;10.17;4.17;;;;;;;;;;20915511;28;20208;-61
2023/07/17 03:44:35;;;;;;;10.70;4.03;;;;;;;;;;20914286;28;20232;-61
2023/07/17 03:54:37;;;;;;;8.57;3.97;;;;;;;;;;20913611;28;20242;-61
2023/07/17 04:04:39;;;;;;;6.10;3.90;;;;;;;;;;20913396;28;20238;-62
2023/07/17 04:14:42;;;;;;;5.80;4.03;;;;;;;;;;20912756;28;20210;-61
2023/07/17 04:28:54;;;;;;;6.90;4.40;;;;;;;;;;21319219;27;20305;-63
2023/07/17 04:38:56;;;;;;;6.23;3.83;;;;;;;;;;21236417;28;20207;-62
2023/07/17 04:48:58;;;;;;;6.80;3.80;;;;;;;;;;21236674;28;20206;-62
2023/07/17 04:59:01;;;;;;;5.63;3.83;;;;;;;;;;21234529;28;20292;-63
2023/07/17 05:09:02;;;;;;;7.57;4.30;;;19.00;94.40;;;;;;21232414;28;20217;-63
2023/07/17 05:19:04;;;;;;;13.90;4.47;;;;;;;;;;21233499;28;20682;-63
2023/07/17 05:29:06;;;;;;;6.93;4.00;;;;;;;;;;21232617;28;20217;-63
2023/07/17 05:39:08;;;;;;;9.83;4.20;;;19.90;93.90;;;;;;21181851;28;20205;-65
2023/07/17 05:49:10;;;;;;;9.73;4.07;;;20.30;93.60;;;;;;21174003;28;20259;-67
2023/07/17 05:59:12;;;;;;;9.17;3.97;;;20.30;93.90;;;;;;21168257;28;20538;-67
2023/07/17 06:09:14;;;;;;;12.30;4.30;;;20.70;93.40;;;;;;21166920;28;20586;-67
2023/07/17 06:19:16;;;;;;;15.23;4.00;;;20.80;92.30;;;;;;21171334;28;20237;-67
2023/07/17 06:29:17;;;;;;;7.27;3.70;;;21.30;91.00;;;;;;21170058;28;20253;-67
2023/07/17 06:39:19;;;;;;;7.73;3.53;;;21.30;90.60;;;;;;21169325;28;20547;-67
2023/07/17 06:49:21;;;;;;;4.70;3.10;;;21.60;89.10;;;;;;21168123;28;20275;-68
2023/07/17 06:59:28;;;;;;;7.17;4.37;;;21.90;86.60;;;;;;21167571;28;20280;-68
2023/07/17 07:09:30;;;;;;;8.20;3.60;;;22.00;84.90;;;;;;21167135;28;20206;-67
2023/07/17 07:19:32;;;;;;;6.33;3.67;;;22.10;83.00;;;;;;21166091;28;20236;-68
2023/07/17 07:29:33;;;;;;;6.53;3.40;;;22.20;81.90;;;;;;21165666;28;20209;-68
2023/07/17 07:39:35;;;;;;;6.00;3.60;;;22.50;80.10;;;;;;21164754;28;20274;-68
2023/07/17 07:49:37;;;;;;;7.53;4.00;;;22.80;77.70;;;;;;21146509;28;20209;-67
2023/07/17 07:59:38;;;;;;;10.87;4.63;;;23.10;73.20;;;;;;21163255;28;20234;-67
2023/07/17 08:09:40;;;;;;;7.83;3.37;;;23.30;71.60;;;;;;21163041;28;20633;-67
2023/07/17 08:19:42;;;;;;;6.37;4.57;;;23.60;69.30;;;;;;21162640;28;20237;-67
2023/07/17 08:29:44;;;;;;;10.50;3.80;;;23.80;66.60;;;;;;21162236;28;20296;-67
2023/07/17 08:39:46;;;;;;;8.87;3.80;;;24.00;63.40;;;;;;21161862;28;20568;-67
2023/07/17 08:49:50;;;;;;;6.73;3.67;;;24.20;60.00;;;;;;21161462;28;20231;-67
2023/07/17 08:59:54;;;;;;;8.63;3.20;;;24.40;58.40;;;;;;21161111;28;20765;-67
2023/07/17 09:10:14;;;;;;;6.87;3.50;;;24.80;55.10;;;;;;21167147;28;20288;-67
2023/07/17 09:20:19;;;;;;;12.83;3.30;;;25.10;52.50;;;;;;21176109;28;20245;-67
2023/07/17 09:30:22;;;;;;;8.10;3.43;;;24.90;50.60;;;;;;21175393;28;20209;-67
2023/07/17 09:40:27;;;;;;;6.33;3.10;;;24.90;48.60;;;;;;21174469;28;20265;-67
2023/07/17 09:50:30;;;;;;;6.20;3.53;;;25.40;47.80;;;;;;21174189;28;20616;-68
2023/07/17 10:00:33;;;;;;;5.50;3.83;;;25.70;47.70;;;;;;21172799;28;20321;-68
2023/07/17 10:10:38;;;;;;;8.33;3.33;;;25.80;45.60;;;;;;21171937;28;20210;-67
2023/07/17 10:20:51;;;;;;;6.33;3.60;;;25.80;45.90;;;;;;21171374;28;20259;-67
2023/07/17 10:30:53;;;;;;;8.67;3.83;;;25.80;46.30;;;;;;21170373;28;20285;-67
2023/07/17 10:41:02;;;;;;;6.23;3.80;;;25.80;46.80;;;;;;21169394;28;20255;-69
2023/07/17 10:51:04;;;;;;;4.07;3.37;;;26.20;46.70;;;;;;21169085;28;20294;-69
2023/07/17 11:01:06;;;;;;;4.93;3.60;;;26.40;46.00;;;;;;21168071;28;20316;-67
2023/07/17 11:11:07;;;;;;;6.07;3.80;;;26.40;45.70;;;;;;21167085;28;20685;-67
2023/07/17 11:21:10;;;;;;;6.33;3.70;;;26.60;45.80;;;;;;21166572;28;20248;-66
2023/07/17 11:31:20;;;;;;;6.03;3.67;;;26.80;45.50;;;;;;21165180;28;20635;-67
2023/07/17 11:41:24;;;;;;;5.43;3.70;;;26.80;45.50;;;;;;21158759;28;20233;-67
2023/07/17 11:51:26;;;;;;;8.27;3.73;;;26.80;45.10;;;;;;21161922;28;20245;-67
2023/07/17 12:01:28;;;;;;;7.82;3.67;;;26.90;44.80;;;;;;21161128;28;20312;-69
2023/07/17 12:11:30;;;;;;;9.27;3.83;;;26.80;44.10;;;;;;21160113;28;20259;-69
2023/07/17 12:21:32;;;;;;;7.10;3.43;;;26.90;44.60;;;;;;21160930;28;20720;-68
2023/07/17 12:31:39;;;;;;;5.07;3.10;;;27.20;43.60;;;;;;21160299;28;20202;-69
2023/07/17 12:41:42;;;;;;;5.30;3.27;;;27.30;43.50;;;;;;21160921;28;20229;-69
2023/07/17 12:51:43;;;;;;;6.05;3.50;;;27.20;43.20;;;;;;21178679;28;20206;-69
2023/07/17 13:01:46;;;;;;;6.60;3.40;;;27.10;44.30;;;;;;21177392;28;20236;-74
2023/07/17 13:11:48;;;;;;;6.97;3.73;;;26.70;45.50;;;;;;21176968;28;20206;-66
2023/07/17 13:21:50;;;;;;;6.10;3.33;;;26.80;44.80;;;;;;21176136;28;20237;-66
2023/07/17 13:31:51;;;;;;;9.73;3.37;;;26.70;44.40;;;;;;21174955;28;20216;-63
2023/07/17 13:41:53;;;;;;;5.50;3.00;;;27.10;44.50;;;;;;21174434;28;20233;-65
2023/07/17 13:51:55;;;;;;;6.63;3.00;;;27.10;45.10;;;;;;21173532;28;20567;-63
2023/07/17 14:01:56;;;;;;;3.87;3.10;;;26.80;45.10;;;;;;21154857;28;20407;-63
2023/07/17 14:11:58;;;;;;;7.23;3.03;;;26.90;44.10;;;;;;21172054;28;20729;-63
2023/07/17 14:22:00;;;;;;;5.60;3.10;;;27.20;43.50;;;;;;21171442;28;20277;-63
2023/07/17 14:32:02;;;;;;;5.18;3.40;;;27.00;42.70;;;;;;21170678;28;20705;-64
2023/07/17 14:42:04;;;;;;;5.57;3.47;;;27.80;41.60;;;;;;21169786;28;20233;-64
2023/07/17 14:52:07;;;;;;;6.57;3.20;;;27.70;41.10;;;;;;21168698;28;20569;-63
2023/07/17 15:02:09;;;;;;;6.95;2.80;;;27.00;41.10;;;;;;21120167;28;20237;-67
2023/07/17 15:12:11;;;;;;;9.57;2.80;;;28.20;39.40;;;;;;21079034;28;20202;-68
2023/07/17 15:22:13;;;;;;;5.78;3.10;;;28.50;39.20;;;;;;21081572;28;20326;-70
2023/07/17 15:32:15;;;;;;;5.50;2.40;;;29.20;37.80;;;;;;21081381;28;20293;-67
2023/07/17 15:42:16;;;;;;;6.53;2.38;;;28.80;36.40;;;;;;21080265;28;20238;-69
2023/07/17 15:52:18;;;;;;;7.70;2.50;;;27.90;37.20;;;;;;21080011;28;20238;-70
2023/07/17 16:02:20;;;;;;;3.50;2.08;;;27.60;37.60;;;;;;21079597;28;20348;-74
2023/07/17 16:12:22;;;;;;;8.07;2.25;;;28.10;37.40;;;;;;21078719;28;20221;-72
2023/07/17 16:22:25;;;;;;;3.95;2.05;;;30.10;36.20;;;;;;21077685;28;20277;-76
2023/07/17 16:32:28;;;;;;;3.28;2.05;;;32.50;33.20;;;;;;21078477;28;20206;-73
2023/07/17 16:42:29;;;;;;;8.35;2.28;;;30.90;33.70;;;;;;21077472;28;20226;-72
2023/07/17 16:52:31;;;;;;;4.13;2.50;;;29.00;35.50;;;;;;21076942;28;20256;-70
2023/07/17 17:02:34;;;;;;;5.63;2.42;;;28.60;36.40;;;;;;21076985;28;20240;-70
2023/07/17 17:12:38;;;;;;;3.78;1.90;;;31.30;34.20;;;;;;21076381;28;20683;-76
2023/07/17 17:22:40;;;;;;;4.65;2.38;;;32.80;31.70;;;;;;21075789;28;20329;-71
2023/07/17 17:32:42;;;;;;;4.93;2.05;;;33.20;32.20;;;;;;21085182;28;20202;-72
2023/07/17 17:42:43;;;;;;;4.93;2.40;;;32.40;32.70;;;;;;21090055;28;20234;-77
2023/07/17 17:52:45;;;;;;;3.78;1.90;;;36.70;29.10;;;;;;21090028;28;20282;-70
2023/07/17 18:02:47;;;;;;;2.72;2.17;;;37.40;28.40;;;;;;21172544;28;20237;-65
2023/07/17 18:12:49;;;;;;;6.28;2.80;;;31.60;32.70;;;;;;21172322;28;20554;-66
2023/07/17 18:22:51;;;;;;;8.93;2.35;;;29.00;35.30;;;;;;21171395;28;20621;-74
2023/07/17 18:32:52;;;;;;;7.78;1.98;;;27.60;37.50;;;;;;21171421;28;20683;-69
2023/07/17 18:42:54;;;;;;;4.67;2.20;;;27.10;38.50;;;;;;21169965;28;20238;-69
2023/07/17 18:52:56;;;;;;;4.30;2.20;;;26.70;39.70;;;;;;21169421;28;20296;-68
2023/07/17 19:03:01;;;;;;;3.97;2.17;;;26.40;40.70;;;;;;21168232;28;20238;-67
2023/07/17 19:13:02;;;;;;;12.30;2.47;;;26.00;41.70;;;;;;21167647;28;20206;-70
2023/07/17 19:23:04;;;;;;;9.73;2.80;;;25.60;42.70;;;;;;21119637;28;20273;-67
2023/07/17 19:33:06;;;;;;;3.33;2.00;;;25.30;43.10;;;;;;21081569;28;20206;-70
2023/07/17 19:43:10;;;;;;;3.17;1.93;;;25.00;43.40;;;;;;21080662;28;20226;-67
2023/07/17 19:53:12;;;;;;;5.50;2.20;;;24.80;43.80;;;;;;21079907;28;20569;-62
2023/07/17 20:03:13;;;;;;;9.43;2.77;;;24.60;44.20;;;;;;21159308;28;20225;-64
2023/07/17 20:13:16;;;;;;;7.17;2.83;;;24.30;44.70;;;;;;21159438;28;20237;-69
2023/07/17 20:23:17;;;;;;;5.87;2.20;;;23.90;46.80;;;;;;21161369;28;20325;-64
2023/07/17 20:33:19;;;;;;;4.73;2.27;;;23.60;47.70;;;;;;21160986;28;20288;-61
2023/07/17 20:43:21;;;;;;;4.63;2.27;;;23.30;48.30;;;;;;21160363;28;20242;-62
2023/07/17 20:53:23;;;;;;;4.47;2.30;;;23.10;48.90;;;;;;21159579;28;20221;-65
2023/07/17 21:03:25;;;;;;;7.23;2.97;;;22.80;49.90;;;;;;21162561;28;20229;-62
2023/07/17 21:13:29;;;;;;;4.70;2.40;;;22.60;51.20;;;;;;21171754;28;20216;-64
2023/07/17 21:23:31;;;;;;;7.03;2.60;;;22.40;51.70;;;;;;21173929;28;20597;-63
2023/07/17 21:33:33;;;;;;;20.80;2.97;;;22.20;51.60;;;;;;21174170;28;20217;-65
2023/07/17 21:43:35;;;;;;;7.37;2.87;;;22.10;51.80;;;;;;21173041;28;20279;-68
2023/07/17 21:53:37;;;;;;;5.20;2.80;;;21.80;52.80;;;;;;21172015;28;20201;-62
2023/07/17 22:03:40;;;;;;;6.53;2.50;;;21.60;53.10;;;;;;21172415;28;20234;-61
2023/07/17 22:13:42;;;;;;;7.87;2.83;;;21.50;53.80;;;;;;21170218;28;20676;-61
2023/07/17 22:23:44;;;;;;;5.27;2.77;;;21.30;54.50;;;;;;21172015;28;20307;-63
2023/07/17 22:33:46;;;;;;;7.43;2.40;;;21.10;55.20;;;;;;21171814;28;20205;-61
2023/07/17 22:43:48;;;;;;;8.27;2.70;;;20.90;56.20;;;;;;21170591;28;20683;-61
2023/07/17 22:53:52;;;;;;;4.37;2.30;;;20.50;57.60;;;;;;21151500;28;20251;-63
2023/07/17 23:03:54;;;;;;;5.27;2.33;;;20.60;58.00;;;;;;21169157;28;20237;-62
2023/07/17 23:13:56;;;;;;;5.10;2.83;;;20.70;57.80;;;;;;21168095;28;20669;-63
2023/07/17 23:23:58;;;;;;;3.93;2.50;;;20.60;57.90;;;;;;21166887;28;20251;-62
2023/07/17 23:33:59;;;;;;;6.83;2.70;;;20.50;58.70;;;;;;21165884;28;20216;-63
2023/07/17 23:44:01;;;;;;;6.13;3.00;;;20.30;58.10;;;;;;21147571;28;20243;-69
2023/07/17 23:54:04;;;;;;;7.70;2.60;;;20.40;58.80;;;;;;21165151;28;20212;-61
